LEZG/ZAZ METAR and TAF weather

Enter ICAO airport designator
Station Type Date Time Source
LEZG METAR 2019/05/25 09:30 UTC NOAA

LEZG 250930Z 31023KT 9999 FEW030 18/10 Q1019


Station Type Date Time Source
LEZG Decoded METAR 2019/05/25 09:30 UTC NOAA

Zaragoza / Aeropuerto, Spain (LEZG) 41-40N 001-01W 258M
May 25, 2019 - 05:30 AM EDT / 2019.05.25 0930 UTC
Wind: from the NW (310 degrees) at 26 MPH (23 KT):0
Visibility: greater than 7 mile(s):0
Sky conditions: mostly clear
Temperature: 64 F (18 C)
Dew Point: 50 F (10 C)
Relative Humidity: 59%
Pressure (altimeter): 30.09 in. Hg (1019 hPa)
ob: LEZG 250930Z 31023KT 9999 FEW030 18/10 Q1019
cycle: 9

Station Type Date Time Source
LEZG TAF 2019/05/25 06:27 UTC NOAA

TAF LEZG 250500Z 2506/2606 30020KT 9999 FEW030 TX23/2514Z TN12/2506Z
TEMPO 2507/2521 31025G35KT

Example: see airport list